Time;durP1;ratioP1;P1;durP2;ratioP2;P2;SDS_P1;SDS_P2;PMS_P1;PMS_P2;Temp;Humidity;BMP_temperature;BMP_pressure;BME280_temperature;BME280_humidity;BME280_pressure;Samples;Min_cycle;Max_cycle;Signal;HPM_P1;HPM_P2
2023/10/27 00:00:42;;;;;;;0.00;0.00;;;;;;;10.58;100.00;99181.63;5111320;28;20028;-41
2023/10/27 00:03:07;;;;;;;0.00;0.00;;;;;;;10.58;100.00;99178.13;5111632;28;20044;-39
2023/10/27 00:05:32;;;;;;;0.00;0.00;;;;;;;10.58;100.00;99178.94;5112751;28;20047;-38
2023/10/27 00:07:58;;;;;;;0.00;0.00;;;;;;;10.63;100.00;99180.97;5112140;28;20117;-39
2023/10/27 00:10:24;;;;;;;0.00;0.00;;;;;;;10.60;100.00;99170.66;5112176;28;20020;-39
2023/10/27 00:12:50;;;;;;;0.00;0.00;;;;;;;10.55;100.00;99176.72;5111592;28;20031;-38
2023/10/27 00:15:15;;;;;;;0.00;0.00;;;;;;;10.54;100.00;99180.47;5111977;28;20028;-40
2023/10/27 00:17:41;;;;;;;0.00;0.00;;;;;;;10.56;100.00;99170.31;5113410;28;20104;-39
2023/10/27 00:20:06;;;;;;;0.00;0.00;;;;;;;10.53;100.00;99170.72;5111929;28;20031;-39
2023/10/27 00:22:33;;;;;;;0.00;0.00;;;;;;;10.56;100.00;99175.69;5112087;28;20028;-40
2023/10/27 00:25:05;;;;;;;0.00;0.00;;;;;;;10.56;100.00;99173.00;5113400;28;20057;-40
2023/10/27 00:27:30;;;;;;;0.00;0.00;;;;;;;10.57;100.00;99166.56;5111965;28;20446;-40
2023/10/27 00:29:55;;;;;;;0.00;0.00;;;;;;;10.56;100.00;99170.31;5111485;28;20054;-39
2023/10/27 00:32:21;;;;;;;0.00;0.00;;;;;;;10.58;100.00;99162.81;5110894;28;20032;-38
2023/10/27 00:34:46;;;;;;;0.00;0.00;;;;;;;10.52;100.00;99163.72;5111462;28;20019;-39
2023/10/27 00:37:12;;;;;;;0.00;0.00;;;;;;;10.46;100.00;99164.59;5111458;28;20016;-39
2023/10/27 00:39:39;;;;;;;0.00;0.00;;;;;;;10.44;100.00;99151.38;5110692;28;20049;-40
2023/10/27 00:42:05;;;;;;;0.00;0.00;;;;;;;10.51;100.00;99157.50;5111490;28;20047;-40
2023/10/27 00:44:30;;;;;;;0.00;0.00;;;;;;;10.46;100.00;99153.84;5109855;28;20114;-41
2023/10/27 00:46:55;;;;;;;0.00;0.00;;;;;;;10.47;100.00;99150.91;5110384;28;20565;-41
2023/10/27 00:49:21;;;;;;;0.00;0.00;;;;;;;10.46;100.00;99148.47;5110857;28;20122;-40
2023/10/27 00:51:47;;;;;;;0.00;0.00;;;;;;;10.50;100.00;99155.03;5110902;28;20053;-43
2023/10/27 00:54:13;;;;;;;0.00;0.00;;;;;;;10.47;100.00;99150.91;5092379;28;20067;-42
2023/10/27 00:56:39;;;;;;;0.00;0.00;;;;;;;10.47;100.00;99145.53;5109985;28;20104;-43
2023/10/27 00:59:05;;;;;;;0.00;0.00;;;;;;;10.45;100.00;99142.28;5110329;28;20064;-41
2023/10/27 01:01:31;;;;;;;0.00;0.00;;;;;;;10.46;100.00;99143.91;5110302;28;20032;-41
2023/10/27 01:03:56;;;;;;;0.00;0.00;;;;;;;10.46;100.00;99146.59;5091475;28;20130;-42
2023/10/27 01:06:23;;;;;;;0.00;0.00;;;;;;;10.39;100.00;99148.53;5110184;28;20027;-42
2023/10/27 01:08:48;;;;;;;0.00;0.00;;;;;;;10.42;100.00;99147.25;5109937;28;20137;-42
2023/10/27 01:11:14;;;;;;;0.00;0.00;;;;;;;10.41;100.00;99140.25;5110053;28;20046;-41
2023/10/27 01:13:39;;;;;;;0.00;0.00;;;;;;;10.37;100.00;99137.16;5113019;28;20110;-41
2023/10/27 01:16:05;;;;;;;0.00;0.00;;;;;;;10.39;100.00;99134.25;5113917;28;20102;-42
2023/10/27 01:18:30;;;;;;;0.00;0.00;;;;;;;10.38;100.00;99138.00;5113982;28;20031;-41
2023/10/27 01:20:56;;;;;;;0.00;0.00;;;;;;;10.39;100.00;99131.56;5115442;28;20031;-41
2023/10/27 01:23:21;;;;;;;0.00;0.00;;;;;;;10.44;100.00;99137.09;5116623;28;20172;-41
2023/10/27 01:25:46;;;;;;;0.00;0.00;;;;;;;10.43;100.00;99135.47;5098245;28;20035;-40
2023/10/27 01:28:12;;;;;;;0.00;0.00;;;;;;;10.51;100.00;99135.19;5115528;28;20479;-41
2023/10/27 01:30:37;;;;;;;0.00;0.00;;;;;;;10.48;100.00;99132.94;5113744;28;20035;-42
2023/10/27 01:33:02;;;;;;;0.00;0.00;;;;;;;10.47;100.00;99123.22;5114070;28;20032;-40
2023/10/27 01:35:28;;;;;;;0.00;0.00;;;;;;;10.44;100.00;99134.41;5114642;28;20015;-39
2023/10/27 01:37:53;;;;;;;0.00;0.00;;;;;;;10.42;100.00;99131.13;5116576;28;20358;-40
2023/10/27 01:40:19;;;;;;;0.00;0.00;;;;;;;10.44;100.00;99129.03;5112020;28;20031;-40
2023/10/27 01:42:44;;;;;;;0.00;0.00;;;;;;;10.39;100.00;99128.88;5113983;28;20157;-40
2023/10/27 01:45:10;;;;;;;0.00;0.00;;;;;;;10.43;100.00;99124.72;5114254;28;20382;-40
2023/10/27 01:47:36;;;;;;;0.00;0.00;;;;;;;10.42;100.00;99125.75;5114371;28;20023;-40
2023/10/27 01:50:01;;;;;;;0.00;0.00;;;;;;;10.45;100.00;99127.97;5114029;28;20027;-42
2023/10/27 01:52:26;;;;;;;0.00;0.00;;;;;;;10.42;100.00;99125.75;5114027;28;20023;-40
2023/10/27 01:54:53;;;;;;;0.00;0.00;;;;;;;10.43;100.00;99127.41;5114265;28;20050;-40
2023/10/27 01:57:21;;;;;;;0.00;0.00;;;;;;;10.39;100.00;99126.19;5113911;28;20086;-40
2023/10/27 01:59:46;;;;;;;0.00;0.00;;;;;;;10.39;100.00;99126.19;5113697;28;20035;-41
2023/10/27 02:02:13;;;;;;;0.00;0.00;;;;;;;10.41;100.00;99121.41;5113431;28;20023;-41
2023/10/27 02:04:39;;;;;;;0.00;0.00;;;;;;;10.37;100.00;99121.03;5113677;28;20027;-42
2023/10/27 02:07:04;;;;;;;0.00;0.00;;;;;;;10.37;100.00;99120.22;5113591;28;20019;-40
2023/10/27 02:09:30;;;;;;;0.00;0.00;;;;;;;10.36;100.00;99118.56;5114084;28;20024;-41
2023/10/27 02:11:55;;;;;;;0.00;0.00;;;;;;;10.39;100.00;99115.44;5113319;28;20522;-40
2023/10/27 02:14:21;;;;;;;0.00;0.00;;;;;;;10.42;100.00;99112.28;5113475;28;20137;-40
2023/10/27 02:16:46;;;;;;;0.00;0.00;;;;;;;10.43;100.00;99113.97;5112280;28;20032;-39
2023/10/27 02:19:13;;;;;;;0.00;0.00;;;;;;;10.50;100.00;99109.31;5112009;28;20023;-41
2023/10/27 02:21:38;;;;;;;0.00;0.00;;;;;;;10.46;100.00;99110.81;5111769;28;20036;-39
2023/10/27 02:24:04;;;;;;;0.00;0.00;;;;;;;10.47;100.00;99107.06;5111053;28;20152;-38
2023/10/27 02:26:29;;;;;;;0.00;0.00;;;;;;;10.47;100.00;99113.28;5113243;28;20492;-38
2023/10/27 02:28:55;;;;;;;0.00;0.00;;;;;;;10.46;100.00;99095.50;5112160;28;20019;-42
2023/10/27 02:31:20;;;;;;;0.00;0.00;;;;;;;10.45;100.00;99107.31;5112006;28;20443;-41
2023/10/27 02:33:45;;;;;;;0.00;0.00;;;;;;;10.45;100.00;99109.16;5112493;28;20039;-42
2023/10/27 02:36:10;;;;;;;0.00;0.00;;;;;;;10.37;100.00;99107.56;5112265;28;20545;-42
2023/10/27 02:38:36;;;;;;;0.00;0.00;;;;;;;10.38;100.00;99111.13;5093757;28;20150;-40
2023/10/27 02:41:08;;;;;;;0.00;0.00;;;;;;;10.41;100.00;99108.78;5101224;28;20464;-40
2023/10/27 02:43:34;;;;;;;0.00;0.00;;;;;;;10.39;100.00;99107.38;5113733;28;20039;-39
2023/10/27 02:46:00;;;;;;;0.00;0.00;;;;;;;10.35;100.00;99114.22;5114958;27;20441;-40
2023/10/27 02:48:26;;;;;;;0.00;0.00;;;;;;;10.37;100.00;99117.53;5113134;28;20030;-40
2023/10/27 02:50:51;;;;;;;0.00;0.00;;;;;;;10.33;100.00;99111.78;5113239;28;20102;-43
2023/10/27 02:53:17;;;;;;;0.00;0.00;;;;;;;10.29;100.00;99116.78;5113357;28;20032;-44
2023/10/27 02:55:42;;;;;;;0.00;0.00;;;;;;;10.37;100.00;99117.53;5112838;28;20092;-45
2023/10/27 02:58:07;;;;;;;0.00;0.00;;;;;;;10.31;100.00;99116.56;5112578;28;20020;-41
2023/10/27 03:00:33;;;;;;;0.00;0.00;;;;;;;10.29;100.00;99116.78;5113500;28;20020;-41
2023/10/27 03:02:58;;;;;;;0.00;0.00;;;;;;;10.27;100.00;99113.50;5112891;28;20445;-40
2023/10/27 03:05:23;;;;;;;0.00;0.00;;;;;;;10.27;100.00;99108.13;5113334;28;20096;-40
2023/10/27 03:07:49;;;;;;;0.08;0.00;;;;;;;10.26;100.00;99109.09;5112559;28;20688;-41
2023/10/27 03:10:14;;;;;;;0.00;0.00;;;;;;;10.27;100.00;99101.88;5112924;28;20045;-42
2023/10/27 03:12:40;;;;;;;0.00;0.00;;;;;;;10.26;100.00;99101.03;5112439;28;20466;-41
2023/10/27 03:15:05;;;;;;;0.00;0.00;;;;;;;10.29;100.00;99103.34;5112147;28;20016;-42
2023/10/27 03:17:31;;;;;;;0.00;0.00;;;;;;;10.27;100.00;99091.97;5112419;28;20035;-44
2023/10/27 03:19:57;;;;;;;0.00;0.00;;;;;;;10.26;100.00;99102.91;5112208;28;20484;-43
2023/10/27 03:22:22;;;;;;;0.00;0.00;;;;;;;10.25;100.00;99101.28;5112165;28;20111;-43
2023/10/27 03:24:48;;;;;;;0.00;0.00;;;;;;;10.28;100.00;99095.50;5112640;28;20027;-45
2023/10/27 03:27:13;;;;;;;0.00;0.00;;;;;;;10.25;100.00;99102.09;5113400;28;20027;-44
2023/10/27 03:29:38;;;;;;;0.00;0.00;;;;;;;10.22;100.00;99102.53;5115638;28;20024;-42
2023/10/27 03:32:06;;;;;;;0.00;0.00;;;;;;;10.22;100.00;99093.66;5115985;28;20047;-42
2023/10/27 03:34:32;;;;;;;0.00;0.00;;;;;;;10.22;100.00;99091.78;5112896;28;20028;-42
2023/10/27 03:36:57;;;;;;;0.00;0.00;;;;;;;10.21;100.00;99095.50;5111242;28;20107;-40
2023/10/27 03:39:22;;;;;;;0.00;0.00;;;;;;;10.23;100.00;99089.91;5112192;28;20441;-41
2023/10/27 03:41:48;;;;;;;0.00;0.00;;;;;;;10.23;100.00;99092.59;5111408;28;20051;-40
2023/10/27 03:44:13;;;;;;;0.00;0.00;;;;;;;10.20;100.00;99085.81;5112178;28;20055;-41
2023/10/27 03:46:39;;;;;;;0.00;0.00;;;;;;;10.17;100.00;99091.63;5111123;28;20027;-40
2023/10/27 03:49:04;;;;;;;0.00;0.00;;;;;;;10.15;100.00;99091.03;5112765;28;20065;-44
2023/10/27 03:51:31;;;;;;;0.00;0.00;;;;;;;10.12;100.00;99088.78;5110027;28;20133;-41
2023/10/27 03:53:56;;;;;;;0.00;0.00;;;;;;;10.14;100.00;99089.41;5109654;28;20034;-44
2023/10/27 03:56:22;;;;;;;0.00;0.00;;;;;;;10.13;100.00;99087.75;5104521;28;20036;-45
2023/10/27 03:58:47;;;;;;;0.00;0.00;;;;;;;10.11;100.00;99089.84;5105859;28;20024;-44
2023/10/27 04:01:12;;;;;;;0.00;0.00;;;;;;;10.10;100.00;99082.81;5109554;28;20073;-46
2023/10/27 04:03:38;;;;;;;0.00;0.00;;;;;;;10.11;100.00;99087.97;5109427;28;20047;-47
2023/10/27 04:06:03;;;;;;;0.00;0.00;;;;;;;10.12;100.00;99094.16;5109392;28;20108;-46
2023/10/27 04:08:29;;;;;;;0.00;0.00;;;;;;;10.11;100.00;99090.66;5109262;28;20023;-46
2023/10/27 04:10:54;;;;;;;0.00;0.00;;;;;;;10.10;100.00;99085.50;5109269;28;20034;-45
2023/10/27 04:13:19;;;;;;;0.00;0.00;;;;;;;10.14;100.00;99084.03;5109396;28;20024;-45
2023/10/27 04:15:45;;;;;;;0.00;0.00;;;;;;;10.13;100.00;99090.44;5109673;28;20044;-46
2023/10/27 04:18:10;;;;;;;0.00;0.00;;;;;;;10.12;100.00;99083.41;5109117;28;20457;-46
2023/10/27 04:20:36;;;;;;;0.00;0.00;;;;;;;10.09;100.00;99083.88;5108697;28;20604;-46
2023/10/27 04:23:02;;;;;;;0.00;0.00;;;;;;;10.16;100.00;99089.97;5108967;28;20034;-45
2023/10/27 04:25:28;;;;;;;0.00;0.00;;;;;;;10.15;100.00;99088.34;5110951;28;20051;-44
2023/10/27 04:27:55;;;;;;;0.00;0.00;;;;;;;10.16;100.00;99089.97;5109083;28;20036;-45
2023/10/27 04:30:20;;;;;;;0.00;0.00;;;;;;;10.16;100.00;99087.28;5109479;28;20461;-45
2023/10/27 04:32:45;;;;;;;0.00;0.00;;;;;;;10.16;100.00;99098.03;5109656;28;20048;-43
2023/10/27 04:35:12;;;;;;;0.00;0.00;;;;;;;10.16;100.00;99095.34;5109722;27;20415;-45
2023/10/27 04:37:38;;;;;;;0.00;0.00;;;;;;;10.17;100.00;99090.81;5118320;27;20062;-44
2023/10/27 04:40:04;;;;;;;0.00;0.00;;;;;;;10.19;100.00;99104.84;5109785;28;20115;-44
2023/10/27 04:42:30;;;;;;;0.00;0.00;;;;;;;10.18;100.00;99098.66;5107357;28;20057;-44
2023/10/27 04:44:55;;;;;;;0.00;0.00;;;;;;;10.18;100.00;99097.84;5108165;27;20027;-45
2023/10/27 04:47:20;;;;;;;0.00;0.00;;;;;;;10.18;100.00;99104.03;5108180;28;20053;-44
2023/10/27 04:49:46;;;;;;;0.00;0.00;;;;;;;10.21;100.00;99103.56;5109796;28;20020;-45
2023/10/27 04:52:12;;;;;;;0.00;0.00;;;;;;;10.21;100.00;99098.19;5107695;28;20119;-46
2023/10/27 04:54:37;;;;;;;0.00;0.00;;;;;;;10.19;100.00;99097.63;5108212;28;20028;-44
2023/10/27 04:57:03;;;;;;;0.00;0.00;;;;;;;10.19;100.00;99097.63;5110440;28;20032;-46
2023/10/27 04:59:32;;;;;;;0.00;0.00;;;;;;;10.26;100.00;99100.22;5109099;28;20053;-46
2023/10/27 05:01:58;;;;;;;0.00;0.00;;;;;;;10.26;100.00;99095.66;5110365;28;20378;-46
2023/10/27 05:04:23;;;;;;;0.00;0.00;;;;;;;10.26;100.00;99098.34;5109151;28;20034;-47
2023/10/27 05:06:49;;;;;;;0.00;0.00;;;;;;;10.24;100.00;99100.47;5110411;28;20058;-46
2023/10/27 05:09:15;;;;;;;0.00;0.00;;;;;;;10.22;100.00;99101.72;5110497;28;20031;-44
2023/10/27 05:11:42;;;;;;;0.00;0.00;;;;;;;10.23;100.00;99093.44;5110346;28;20034;-43
2023/10/27 05:14:07;;;;;;;0.00;0.00;;;;;;;10.23;100.00;99090.75;5106149;28;20416;-45
2023/10/27 05:16:33;;;;;;;0.00;0.00;;;;;;;10.22;100.00;99096.34;5110616;28;20036;-45
2023/10/27 05:18:58;;;;;;;0.00;0.00;;;;;;;10.22;100.00;99096.34;5110042;28;20036;-43
2023/10/27 05:21:29;;;;;;;0.00;0.00;;;;;;;10.19;100.00;99092.25;5091753;28;20110;-46
2023/10/27 05:23:57;;;;;;;0.00;0.00;;;;;;;10.16;100.00;99095.34;5095381;28;20024;-45
2023/10/27 05:26:23;;;;;;;0.00;0.00;;;;;;;10.18;100.00;99095.97;5110278;28;20077;-48
2023/10/27 05:28:49;;;;;;;0.00;0.00;;;;;;;10.19;100.00;99094.09;5110491;28;20020;-45
2023/10/27 05:31:15;;;;;;;0.00;0.00;;;;;;;10.20;100.00;99096.56;5110036;28;20083;-47
2023/10/27 05:33:40;;;;;;;0.00;0.00;;;;;;;10.21;100.00;99105.44;5108812;28;20368;-44
2023/10/27 05:36:05;;;;;;;0.00;0.00;;;;;;;10.20;100.00;99096.56;5091426;28;20028;-45
2023/10/27 05:38:31;;;;;;;0.00;0.00;;;;;;;10.19;100.00;99096.78;5099787;28;20114;-48
2023/10/27 05:40:56;;;;;;;0.00;0.00;;;;;;;10.17;100.00;99102.38;5109799;28;20143;-49
2023/10/27 05:43:21;;;;;;;0.00;0.00;;;;;;;10.18;100.00;99098.66;5108962;28;20063;-45
2023/10/27 05:45:47;;;;;;;0.00;0.00;;;;;;;10.17;100.00;99097.00;5110356;28;20077;-43
2023/10/27 05:48:12;;;;;;;0.00;0.00;;;;;;;10.19;100.00;99088.72;5110756;28;20039;-45
2023/10/27 05:50:38;;;;;;;0.00;0.00;;;;;;;10.19;100.00;99094.94;5108909;28;20148;-43
2023/10/27 05:53:03;;;;;;;0.00;0.00;;;;;;;10.20;100.00;99098.44;5103707;28;20073;-47
2023/10/27 05:55:29;;;;;;;0.00;0.00;;;;;;;10.22;100.00;99094.47;5108371;28;20034;-46
2023/10/27 05:57:54;;;;;;;0.00;0.00;;;;;;;10.19;100.00;99100.31;5107493;28;20107;-45
2023/10/27 06:00:21;;;;;;;0.00;0.00;;;;;;;10.20;100.00;99091.19;5103774;27;20032;-46
2023/10/27 06:02:48;;;;;;;0.00;0.00;;;;;;;10.17;100.00;99088.94;5112121;28;20477;-47
2023/10/27 06:05:14;;;;;;;0.00;0.00;;;;;;;10.20;100.00;99085.00;5102629;28;20027;-46
2023/10/27 06:07:40;;;;;;;0.00;0.00;;;;;;;10.18;100.00;99093.28;5112841;28;20039;-43
2023/10/27 06:10:06;;;;;;;0.00;0.00;;;;;;;10.18;100.00;99087.91;5093356;28;20028;-45
2023/10/27 06:12:31;;;;;;;0.00;0.00;;;;;;;10.18;100.00;99087.91;5106948;28;20125;-44
2023/10/27 06:14:56;;;;;;;0.00;0.00;;;;;;;10.18;100.00;99093.28;5116767;27;20043;-43
2023/10/27 06:17:22;;;;;;;0.00;0.00;;;;;;;10.22;100.00;99090.97;5113524;27;20024;-43
2023/10/27 06:19:47;;;;;;;0.00;0.00;;;;;;;10.21;100.00;99092.00;5112658;28;20034;-45
2023/10/27 06:22:14;;;;;;;0.00;0.00;;;;;;;10.20;100.00;99101.13;5113107;28;20090;-44
2023/10/27 06:24:39;;;;;;;0.00;0.00;;;;;;;10.17;100.00;99096.19;5112551;28;20033;-45
2023/10/27 06:27:05;;;;;;;0.00;0.00;;;;;;;10.17;100.00;99105.09;5113241;28;20024;-46
2023/10/27 06:29:30;;;;;;;0.00;0.00;;;;;;;10.20;100.00;99106.50;5112417;27;20245;-46
2023/10/27 06:31:56;;;;;;;0.00;0.00;;;;;;;10.17;100.00;99097.00;5111730;28;20299;-44
2023/10/27 06:34:21;;;;;;;0.00;0.00;;;;;;;10.17;100.00;99097.00;5113823;27;20066;-45
2023/10/27 06:36:47;;;;;;;0.00;0.00;;;;;;;10.19;100.00;99096.78;5112498;28;20100;-46
2023/10/27 06:39:13;;;;;;;0.00;0.00;;;;;;;10.23;100.00;99104.19;5112538;28;20028;-44
2023/10/27 06:41:39;;;;;;;0.00;0.00;;;;;;;10.27;100.00;99105.44;5113302;28;20022;-43
2023/10/27 06:44:04;;;;;;;0.00;0.00;;;;;;;10.27;100.00;99102.75;5113149;28;20051;-42
2023/10/27 06:46:31;;;;;;;0.00;0.00;;;;;;;10.25;100.00;99102.09;5107696;27;20099;-41
2023/10/27 06:48:56;;;;;;;0.00;0.00;;;;;;;10.26;100.00;99111.78;5109698;28;20051;-43
2023/10/27 06:51:22;;;;;;;0.00;0.00;;;;;;;10.24;100.00;99115.75;5112498;28;20053;-44
2023/10/27 06:53:47;;;;;;;0.00;0.00;;;;;;;10.26;100.00;99117.19;5112810;28;20031;-45
2023/10/27 06:56:12;;;;;;;0.00;0.00;;;;;;;10.26;100.00;99111.78;5112707;28;20028;-45
2023/10/27 06:58:38;;;;;;;0.00;0.00;;;;;;;10.31;100.00;99122.75;5112661;28;20027;-44
2023/10/27 07:01:10;;;;;;;0.00;0.00;;;;;;;10.31;100.00;99122.75;5111995;28;20028;-45
2023/10/27 07:03:37;;;;;;;0.00;0.00;;;;;;;10.33;100.00;99127.91;5112051;28;20036;-46
2023/10/27 07:06:06;;;;;;;0.00;0.00;;;;;;;10.28;100.00;99125.88;5111840;27;20028;-43
2023/10/27 07:08:32;;;;;;;0.00;0.00;;;;;;;10.26;100.00;99130.63;5111036;28;20466;-43
2023/10/27 07:11:00;;;;;;;0.00;0.00;;;;;;;10.26;100.00;99124.44;5112433;28;20084;-41
2023/10/27 07:13:26;;;;;;;0.00;0.00;;;;;;;10.25;100.00;99123.59;5113847;28;20035;-45
2023/10/27 07:15:51;;;;;;;0.00;0.00;;;;;;;10.25;100.00;99125.47;5113660;28;20023;-44
2023/10/27 07:18:17;;;;;;;0.00;0.00;;;;;;;10.25;100.00;99131.69;5112361;28;20039;-44
2023/10/27 07:20:42;;;;;;;0.00;0.00;;;;;;;10.26;100.00;99127.94;5111615;28;20123;-43
2023/10/27 07:23:07;;;;;;;0.00;0.00;;;;;;;10.28;100.00;99136.63;5110514;28;20147;-40
2023/10/27 07:25:33;;;;;;;0.00;0.00;;;;;;;10.30;100.00;99128.34;5109218;28;20028;-41
2023/10/27 07:27:58;;;;;;;0.00;0.00;;;;;;;10.28;100.00;99128.56;5111712;28;20091;-42
2023/10/27 07:30:23;;;;;;;0.00;0.00;;;;;;;10.32;100.00;99129.78;5125217;27;20039;-42
2023/10/27 07:32:49;;;;;;;0.00;0.00;;;;;;;10.36;100.00;99137.41;5117863;27;20047;-43
2023/10/27 07:35:15;;;;;;;0.00;0.00;;;;;;;10.35;100.00;99135.75;5111742;28;20103;-44
2023/10/27 07:37:40;;;;;;;0.00;0.00;;;;;;;10.36;100.00;99130.16;5104948;28;20032;-44
2023/10/27 07:40:06;;;;;;;0.00;0.00;;;;;;;10.36;100.00;99137.41;5106753;28;20300;-42
2023/10/27 07:42:32;;;;;;;0.00;0.00;;;;;;;10.37;100.00;99129.09;5112088;28;20027;-43
2023/10/27 07:44:57;;;;;;;0.00;0.00;;;;;;;10.37;100.00;99139.03;5080248;28;20038;-40
2023/10/27 07:47:23;;;;;;;0.00;0.00;;;;;;;10.41;100.00;99142.94;5111239;28;20023;-41
2023/10/27 07:49:48;;;;;;;0.00;0.00;;;;;;;10.43;100.00;99132.78;5107628;28;20104;-41
2023/10/27 07:52:13;;;;;;;0.00;0.00;;;;;;;10.44;100.00;99145.19;5110911;28;20023;-44
2023/10/27 07:54:39;;;;;;;0.00;0.00;;;;;;;10.38;100.00;99140.69;5111150;28;20035;-41
2023/10/27 07:57:04;;;;;;;0.00;0.00;;;;;;;10.43;100.00;99148.91;5107402;28;20031;-40
2023/10/27 07:59:30;;;;;;;0.00;0.00;;;;;;;10.42;100.00;99141.88;5113529;27;20027;-40
2023/10/27 08:01:57;;;;;;;0.00;0.00;;;;;;;10.53;100.00;99143.81;5111046;28;20112;-41
2023/10/27 08:04:23;;;;;;;0.00;0.00;;;;;;;10.51;100.00;99151.31;5121286;27;20024;-41
2023/10/27 08:06:49;;;;;;;0.00;0.00;;;;;;;10.52;100.00;99148.38;5112875;27;20028;-40
2023/10/27 08:09:14;;;;;;;0.00;0.00;;;;;;;10.52;100.00;99152.94;5109891;28;20109;-42
2023/10/27 08:11:39;;;;;;;0.00;0.00;;;;;;;10.49;100.00;99150.72;5107744;28;20158;-43
2023/10/27 08:14:05;;;;;;;0.00;0.00;;;;;;;10.52;100.00;99155.63;5108728;28;20024;-41
2023/10/27 08:16:31;;;;;;;0.00;0.00;;;;;;;10.57;100.00;99155.78;5115718;27;20493;-43
2023/10/27 08:18:57;;;;;;;0.00;0.00;;;;;;;10.57;100.00;99154.97;5113426;27;20076;-42
2023/10/27 08:21:23;;;;;;;0.00;0.00;;;;;;;10.54;100.00;99156.25;5112678;28;20035;-41
2023/10/27 08:23:48;;;;;;;0.00;0.00;;;;;;;10.56;100.00;99154.16;5114538;28;20023;-41
2023/10/27 08:26:13;;;;;;;0.00;0.00;;;;;;;10.58;100.00;99160.13;5115290;28;20454;-41
2023/10/27 08:28:38;;;;;;;0.00;0.00;;;;;;;10.53;100.00;99159.97;5097867;28;20049;-42
2023/10/27 08:31:04;;;;;;;0.00;0.00;;;;;;;10.51;100.00;99157.50;5115352;28;20477;-40
2023/10/27 08:33:30;;;;;;;0.00;0.00;;;;;;;10.49;100.00;99164.16;5114744;28;20477;-41
2023/10/27 08:36:01;;;;;;;0.00;0.00;;;;;;;10.47;100.00;99158.19;5111588;28;20059;-42
2023/10/27 08:38:29;;;;;;;0.00;0.00;;;;;;;10.52;100.00;99163.72;5111645;28;20028;-41
2023/10/27 08:40:55;;;;;;;0.00;0.00;;;;;;;10.41;100.00;99164.44;5113444;28;20038;-42
2023/10/27 08:43:22;;;;;;;0.00;0.00;;;;;;;10.42;100.00;99158.00;5093796;28;20437;-43
2023/10/27 08:45:48;;;;;;;0.00;0.00;;;;;;;10.51;100.00;99162.06;5111262;28;20016;-41
2023/10/27 08:48:14;;;;;;;0.00;0.00;;;;;;;10.53;100.00;99160.81;5109906;28;20028;-42
2023/10/27 08:50:40;;;;;;;0.00;0.00;;;;;;;10.61;100.00;99153.47;5110395;28;20510;-44
2023/10/27 08:53:09;;;;;;;0.00;0.00;;;;;;;10.57;100.00;99153.09;5111226;28;20028;-41
2023/10/27 08:55:35;;;;;;;0.00;0.00;;;;;;;10.55;100.00;99156.00;5111858;28;20023;-41
2023/10/27 08:58:00;;;;;;;0.00;0.00;;;;;;;10.54;100.00;99146.31;5111235;28;20057;-43
2023/10/27 09:00:26;;;;;;;0.00;0.00;;;;;;;10.52;100.00;99153.75;5115608;28;20040;-42
2023/10/27 09:02:51;;;;;;;0.00;0.00;;;;;;;10.50;100.00;99149.66;5109961;28;20055;-42
2023/10/27 09:05:17;;;;;;;0.00;0.00;;;;;;;10.51;100.00;99148.63;5112947;28;20043;-43
2023/10/27 09:07:43;;;;;;;0.00;0.00;;;;;;;10.53;100.00;99149.19;5110791;28;20058;-42
2023/10/27 09:10:08;;;;;;;0.00;0.00;;;;;;;10.58;100.00;99152.03;5109727;28;20482;-42
2023/10/27 09:12:37;;;;;;;0.00;0.00;;;;;;;10.60;100.00;99152.66;5110194;28;20425;-42
2023/10/27 09:15:04;;;;;;;0.00;0.00;;;;;;;10.62;100.00;99152.44;5110160;28;20400;-41
2023/10/27 09:17:30;;;;;;;0.00;0.00;;;;;;;10.65;100.00;99157.38;5110239;28;20027;-42
2023/10/27 09:20:06;;;;;;;0.00;0.00;;;;;;;10.63;100.00;99149.50;5111058;28;20631;-43
2023/10/27 09:22:31;;;;;;;0.00;0.00;;;;;;;10.60;100.00;99155.34;5110756;28;20047;-43
2023/10/27 09:25:17;;;;;;;0.00;0.00;;;;;;;10.65;100.00;99155.50;5107890;28;20030;-42
2023/10/27 09:27:44;;;;;;;0.00;0.00;;;;;;;10.69;100.00;99161.25;5108516;28;20149;-40
2023/10/27 09:30:13;;;;;;;0.00;0.00;;;;;;;10.67;100.00;99166.06;5109885;28;20156;-42
2023/10/27 09:32:40;;;;;;;0.00;0.00;;;;;;;10.68;100.00;99159.63;5091482;28;20028;-41
2023/10/27 09:35:17;;;;;;;0.00;0.00;;;;;;;10.59;100.00;99167.16;5114754;28;20084;-40
2023/10/27 09:37:43;;;;;;;0.00;0.00;;;;;;;10.59;100.00;99169.03;5115540;28;20042;-42
2023/10/27 09:40:09;;;;;;;0.00;0.00;;;;;;;10.57;100.00;99169.25;5115282;28;20035;-40
2023/10/27 09:42:38;;;;;;;0.00;0.00;;;;;;;10.56;100.00;99173.00;5116609;28;20036;-40
2023/10/27 09:45:14;;;;;;;0.00;0.00;;;;;;;10.58;100.00;99173.56;5116793;28;20046;-41
2023/10/27 09:47:46;;;;;;;0.00;0.00;;;;;;;10.59;100.00;99169.84;5116742;28;20381;-42
2023/10/27 09:50:18;;;;;;;0.00;0.00;;;;;;;10.77;100.00;99160.97;5115485;28;20402;-39
2023/10/27 09:52:44;;;;;;;0.00;0.00;;;;;;;10.65;100.00;99160.88;5114140;28;20023;-41
2023/10/27 09:55:12;;;;;;;0.00;0.00;;;;;;;10.74;100.00;99156.88;5114714;28;20456;-41
2023/10/27 09:57:37;;;;;;;;;;;;;;;10.78;100.00;99162.59;5114778;28;20066;-41
2023/10/27 10:00:07;;;;;;;0.00;0.00;;;;;;;10.73;100.00;99165.16;5096838;28;20369;-40
2023/10/27 10:02:33;;;;;;;0.00;0.00;;;;;;;10.68;100.00;99173.88;5114852;28;20087;-40
2023/10/27 10:05:02;;;;;;;0.00;0.00;;;;;;;10.62;100.00;99168.59;5096865;28;20066;-40
2023/10/27 10:07:44;;;;;;;0.00;0.00;;;;;;;10.66;100.00;99165.19;5114475;28;20119;-41
2023/10/27 10:10:22;;;;;;;0.00;0.00;;;;;;;10.71;100.00;99173.44;5096317;28;20027;-41
2023/10/27 10:13:17;;;;;;;0.00;0.00;;;;;;;10.75;100.00;99165.75;5114493;28;20024;-42
2023/10/27 10:15:47;;;;;;;0.00;0.00;;;;;;;10.91;100.00;99164.31;5114118;28;20477;-41
2023/10/27 10:18:21;;;;;;;0.00;0.00;;;;;;;10.94;100.00;99163.88;5095713;28;20366;-41
2023/10/27 10:20:52;;;;;;;0.00;0.00;;;;;;;10.97;100.00;99172.31;5114173;28;20023;-40
2023/10/27 10:23:18;;;;;;;0.00;0.00;;;;;;;11.08;100.00;99169.91;5113705;28;20036;-40
2023/10/27 10:25:50;;;;;;;0.00;0.00;;;;;;;11.18;100.00;99171.00;5113945;28;20027;-38
2023/10/27 10:28:16;;;;;;;0.00;0.00;;;;;;;11.01;100.00;99175.38;5113723;28;20034;-39
2023/10/27 10:30:46;;;;;;;0.00;0.00;;;;;;;11.04;100.00;99169.53;5114211;28;20031;-40
2023/10/27 10:33:22;;;;;;;0.00;0.00;;;;;;;11.11;100.00;99167.59;5113761;28;20053;-39
2023/10/27 10:35:51;;;;;;;0.00;0.00;;;;;;;11.09;100.00;99163.50;5113807;28;20050;-38
2023/10/27 10:38:20;;;;;;;0.00;0.00;;;;;;;11.13;100.00;99164.66;5095690;28;20525;-38
2023/10/27 10:40:49;;;;;;;0.00;0.00;;;;;;;11.13;100.00;99157.41;5113882;28;20047;-39
2023/10/27 10:43:20;;;;;;;0.00;0.00;;;;;;;11.25;100.00;99165.56;5113943;28;20219;-39
2023/10/27 10:45:50;;;;;;;0.00;0.00;;;;;;;11.24;100.00;99155.81;5113244;28;20366;-41
2023/10/27 10:48:16;;;;;;;0.00;0.00;;;;;;;11.15;100.00;99157.19;5113470;28;20234;-38
2023/10/27 10:50:43;;;;;;;0.00;0.00;;;;;;;11.07;100.00;99160.19;5113537;28;20080;-40
2023/10/27 10:53:10;;;;;;;0.00;0.00;;;;;;;11.12;100.00;99153.09;5114207;28;20031;-42
2023/10/27 10:55:36;;;;;;;0.00;0.00;;;;;;;11.25;100.00;99157.47;5113476;28;20030;-40
2023/10/27 10:58:01;;;;;;;0.00;0.00;;;;;;;11.17;100.00;99150.53;5113309;28;20277;-40
2023/10/27 11:00:35;;;;;;;0.00;0.00;;;;;;;11.28;100.00;99150.81;5113325;28;20115;-41
2023/10/27 11:03:10;;;;;;;0.00;0.00;;;;;;;11.51;100.00;99156.28;5112905;28;20044;-38
2023/10/27 11:05:36;;;;;;;0.00;0.00;;;;;;;11.62;100.00;99158.19;5112801;28;20019;-39
2023/10/27 11:08:02;;;;;;;0.00;0.00;;;;;;;11.45;100.00;99151.78;5113431;28;20030;-40
2023/10/27 11:10:28;;;;;;;0.00;0.00;;;;;;;11.42;100.00;99153.06;5113294;28;20031;-40
2023/10/27 11:12:54;;;;;;;0.00;0.00;;;;;;;11.38;100.00;99148.41;5113186;28;20023;-41
2023/10/27 11:15:41;;;;;;;0.00;0.00;;;;;;;11.29;100.00;99147.06;5094157;28;20390;-40
2023/10/27 11:18:10;;;;;;;0.00;0.00;;;;;;;11.32;100.00;99138.53;5112703;28;20020;-40
2023/10/27 11:20:38;;;;;;;0.00;0.00;;;;;;;11.33;100.00;99142.88;5112426;28;20023;-40